createdAt,value
2018-07-08T00:03:13.182Z,99.90
2018-07-08T00:08:15.883Z,99.90
2018-07-08T00:13:18.946Z,99.90
2018-07-08T00:18:22.891Z,99.90
2018-07-08T00:23:25.578Z,99.90
2018-07-08T00:28:28.256Z,99.90
2018-07-08T00:33:30.926Z,99.90
2018-07-08T00:38:34.247Z,99.90
2018-07-08T00:43:36.851Z,99.90
2018-07-08T00:48:39.487Z,99.90
2018-07-08T00:53:42.107Z,99.90
2018-07-08T00:58:44.723Z,99.90
2018-07-08T01:03:47.450Z,99.90
2018-07-08T01:08:50.077Z,99.90
2018-07-08T01:13:52.902Z,99.90
2018-07-08T01:18:56.187Z,99.90
2018-07-08T01:23:58.834Z,99.90
2018-07-08T01:29:01.523Z,99.90
2018-07-08T01:34:04.275Z,99.90
2018-07-08T01:39:07.133Z,99.90
2018-07-08T01:44:09.767Z,99.90
2018-07-08T01:54:15.258Z,99.90
2018-07-08T01:59:18.112Z,99.90
2018-07-08T02:04:20.831Z,99.90
2018-07-08T02:09:23.550Z,99.90
2018-07-08T02:14:26.258Z,99.90
2018-07-08T02:19:29.472Z,99.90
2018-07-08T02:24:32.188Z,99.90
2018-07-08T02:29:35.949Z,99.90
2018-07-08T02:34:38.676Z,99.90
2018-07-08T02:39:41.383Z,99.90
2018-07-08T02:44:44.182Z,99.90
2018-07-08T02:54:49.850Z,99.90
2018-07-08T02:59:52.495Z,99.90
2018-07-08T03:04:55.089Z,99.90
2018-07-08T03:09:57.707Z,99.90
2018-07-08T03:15:00.315Z,99.90
2018-07-08T03:20:02.975Z,99.90
2018-07-08T03:25:05.661Z,99.90
2018-07-08T03:30:08.356Z,99.90
2018-07-08T03:35:11.323Z,99.90
2018-07-08T03:40:13.935Z,99.90
2018-07-08T03:50:19.078Z,99.90
2018-07-08T03:55:21.727Z,99.90
2018-07-08T04:00:24.358Z,99.90
2018-07-08T04:05:27.023Z,99.90
2018-07-08T04:10:29.686Z,99.90
2018-07-08T04:15:32.333Z,99.90
2018-07-08T04:20:35.795Z,99.90
2018-07-08T04:25:38.994Z,99.90
2018-07-08T04:30:41.648Z,99.90
2018-07-08T04:35:44.275Z,99.90
2018-07-08T04:40:46.872Z,99.90
2018-07-08T04:45:49.492Z,99.90
2018-07-08T04:50:52.118Z,99.90
2018-07-08T04:55:54.718Z,99.90
2018-07-08T05:00:57.400Z,99.90
2018-07-08T05:06:00.037Z,99.90
2018-07-08T05:11:02.654Z,99.90
2018-07-08T05:16:05.483Z,99.90
2018-07-08T05:21:08.864Z,99.90
2018-07-08T05:26:11.574Z,99.90
2018-07-08T05:31:14.080Z,99.90
2018-07-08T05:36:16.763Z,99.90
2018-07-08T05:41:19.463Z,99.90
2018-07-08T05:46:22.114Z,99.90
2018-07-08T05:51:24.804Z,99.90
2018-07-08T05:56:27.968Z,99.90
2018-07-08T06:01:31.687Z,99.90
2018-07-08T06:06:34.303Z,99.90
2018-07-08T06:11:36.944Z,99.90
2018-07-08T06:16:39.555Z,99.90
2018-07-08T06:21:43.035Z,98.70
2018-07-08T06:26:45.672Z,97.50
2018-07-08T06:31:48.430Z,96.90
2018-07-08T06:36:51.033Z,96.10
2018-07-08T06:41:53.659Z,96.00
2018-07-08T06:46:56.284Z,94.90
2018-07-08T06:51:58.986Z,94.90
2018-07-08T06:57:01.606Z,94.60
2018-07-08T07:02:04.246Z,94.20
2018-07-08T07:07:06.942Z,93.30
2018-07-08T07:12:09.714Z,92.70
2018-07-08T07:17:12.546Z,93.50
2018-07-08T07:22:15.183Z,91.70
2018-07-08T07:27:17.812Z,90.10
2018-07-08T07:32:20.455Z,86.10
2018-07-08T07:37:23.167Z,85.10
2018-07-08T07:42:25.790Z,83.40
2018-07-08T07:47:28.398Z,82.70
2018-07-08T07:52:31.055Z,82.30
2018-07-08T07:57:33.654Z,79.80
2018-07-08T08:02:36.516Z,77.60
2018-07-08T08:07:39.128Z,84.00
2018-07-08T08:12:41.802Z,82.10
2018-07-08T08:17:44.433Z,75.80
2018-07-08T08:22:47.204Z,76.70
2018-07-08T08:27:49.958Z,73.40
2018-07-08T08:32:52.637Z,74.70
2018-07-08T08:37:56.302Z,69.00
2018-07-08T08:42:59.970Z,70.20
2018-07-08T08:48:02.586Z,62.40
2018-07-08T08:53:05.531Z,58.90
2018-07-08T08:58:08.258Z,62.80
2018-07-08T09:03:10.921Z,62.30
2018-07-08T09:08:13.700Z,58.60
2018-07-08T09:13:24.690Z,58.00
2018-07-08T09:18:27.911Z,56.30
2018-07-08T09:23:30.534Z,57.40
2018-07-08T09:28:33.162Z,58.30
2018-07-08T09:33:35.827Z,57.90
2018-07-08T09:38:38.584Z,54.70
2018-07-08T09:43:41.275Z,54.40
2018-07-08T09:48:43.888Z,52.80
2018-07-08T09:53:46.549Z,52.00
2018-07-08T09:58:49.471Z,53.20
2018-07-08T10:03:52.128Z,47.50
2018-07-08T10:08:54.744Z,45.70
2018-07-08T10:13:57.579Z,43.20
2018-07-08T10:19:00.130Z,41.90
2018-07-08T10:24:03.027Z,42.40
2018-07-08T10:29:06.392Z,41.20
2018-07-08T10:34:08.992Z,39.20
2018-07-08T10:39:12.706Z,37.20
2018-07-08T10:44:15.326Z,36.80
2018-07-08T10:49:17.939Z,39.60
2018-07-08T10:54:20.611Z,39.50
2018-07-08T11:04:25.956Z,34.20
2018-07-08T11:09:28.615Z,34.50
2018-07-08T11:14:31.876Z,33.10
2018-07-08T11:19:34.498Z,30.90
2018-07-08T11:24:37.359Z,32.40
2018-07-08T11:29:40.192Z,30.40
2018-07-08T11:34:46.743Z,29.80
2018-07-08T11:39:49.380Z,26.80
2018-07-08T11:44:52.048Z,28.20
2018-07-08T11:49:54.731Z,27.90
2018-07-08T11:54:57.561Z,27.70
2018-07-08T12:00:00.208Z,27.10
2018-07-08T12:05:03.124Z,26.60
2018-07-08T12:10:06.069Z,27.00
2018-07-08T12:15:09.552Z,26.40
2018-07-08T12:20:12.271Z,26.00
2018-07-08T12:25:14.936Z,24.90
2018-07-08T12:30:17.635Z,23.60
2018-07-08T12:35:20.362Z,24.90
2018-07-08T12:40:23.132Z,24.40
2018-07-08T12:45:25.790Z,23.90
2018-07-08T12:50:28.455Z,24.70
2018-07-08T12:55:31.075Z,22.30
2018-07-08T13:00:33.705Z,23.40
2018-07-08T13:05:36.396Z,22.40
2018-07-08T13:10:39.103Z,20.40
2018-07-08T13:15:41.747Z,20.50
2018-07-08T13:20:44.418Z,20.60
2018-07-08T13:25:47.051Z,24.10
2018-07-08T13:30:49.798Z,27.00
2018-07-08T13:35:52.424Z,21.90
2018-07-08T13:40:55.102Z,21.30
2018-07-08T13:45:58.518Z,25.80
2018-07-08T13:51:01.139Z,23.70
2018-07-08T14:01:06.445Z,22.70
2018-07-08T14:06:09.245Z,26.00
2018-07-08T14:11:11.891Z,28.20
2018-07-08T14:16:14.571Z,22.60
2018-07-08T14:21:17.211Z,21.90
2018-07-08T14:26:19.847Z,19.30
2018-07-08T14:31:22.547Z,18.90
2018-07-08T14:36:25.206Z,19.00
2018-07-08T14:41:27.859Z,18.90
2018-07-08T14:46:30.546Z,18.40
2018-07-08T14:51:33.183Z,17.80
2018-07-08T14:56:35.827Z,17.90
2018-07-08T15:01:38.561Z,19.10
2018-07-08T15:06:41.256Z,18.20
2018-07-08T15:11:44.019Z,18.20
2018-07-08T15:16:46.644Z,16.80
2018-07-08T15:21:49.672Z,16.40
2018-07-08T15:26:52.295Z,16.60
2018-07-08T15:31:54.975Z,16.60
2018-07-08T15:36:57.938Z,18.40
2018-07-08T15:42:00.876Z,18.90
2018-07-08T15:47:03.646Z,18.50
2018-07-08T15:52:06.837Z,17.80
2018-07-08T15:57:09.471Z,17.80
2018-07-08T16:02:12.156Z,21.70
2018-07-08T16:07:14.787Z,21.30
2018-07-08T16:12:17.527Z,22.60
2018-07-08T16:17:20.170Z,21.30
2018-07-08T16:22:22.862Z,20.50
2018-07-08T16:27:25.564Z,20.70
2018-07-08T16:32:28.334Z,21.40
2018-07-08T16:37:31.137Z,19.70
2018-07-08T16:42:33.843Z,20.10
2018-07-08T16:47:36.547Z,20.20
2018-07-08T16:52:39.274Z,20.80
2018-07-08T16:57:41.995Z,19.30
2018-07-08T17:02:44.627Z,21.20
2018-07-08T17:07:47.322Z,21.30
2018-07-08T17:12:50.092Z,20.40
2018-07-08T17:17:52.748Z,21.30
2018-07-08T17:22:55.499Z,21.80
2018-07-08T17:27:58.135Z,21.90
2018-07-08T17:33:01.234Z,21.60
2018-07-08T17:38:04.059Z,23.10
2018-07-08T17:43:06.728Z,26.50
2018-07-08T17:48:09.388Z,26.70
2018-07-08T17:53:12.032Z,28.70
2018-07-08T17:58:14.830Z,29.80
2018-07-08T18:03:17.829Z,31.30
2018-07-08T18:08:20.832Z,34.00
2018-07-08T18:13:23.522Z,34.80
2018-07-08T18:18:26.273Z,36.40
2018-07-08T18:23:28.954Z,38.00
2018-07-08T18:28:31.611Z,37.80
2018-07-08T18:33:34.400Z,39.40
2018-07-08T18:38:37.280Z,39.50
2018-07-08T18:43:40.012Z,41.70
2018-07-08T18:48:42.743Z,43.00
2018-07-08T18:53:45.595Z,44.10
2018-07-08T18:58:48.357Z,45.20
2018-07-08T19:03:52.430Z,45.70
2018-07-08T19:08:55.850Z,45.70
2018-07-08T19:13:58.510Z,54.70
2018-07-08T19:19:01.951Z,59.40
2018-07-08T19:24:04.693Z,62.70
2018-07-08T19:29:07.605Z,65.20
2018-07-08T19:34:10.211Z,69.70
2018-07-08T19:39:15.599Z,76.50
2018-07-08T19:44:19.364Z,81.50
2018-07-08T19:49:22.071Z,83.70
2018-07-08T19:54:25.109Z,87.80
2018-07-08T19:59:27.783Z,88.90
2018-07-08T20:04:30.459Z,90.10
2018-07-08T20:09:33.297Z,90.80
2018-07-08T20:14:36.299Z,91.10
2018-07-08T20:19:39.023Z,91.30
2018-07-08T20:24:42.345Z,91.40
2018-07-08T20:29:45.021Z,90.40
2018-07-08T20:34:47.667Z,90.90
2018-07-08T20:39:50.416Z,90.60
2018-07-08T20:44:53.331Z,91.10
2018-07-08T20:49:56.246Z,90.70
2018-07-08T20:55:00.021Z,91.20
2018-07-08T21:00:02.776Z,91.40
2018-07-08T21:05:05.523Z,90.80
2018-07-08T21:10:08.432Z,90.30
2018-07-08T21:15:11.100Z,90.60
2018-07-08T21:20:14.199Z,90.50
2018-07-08T21:25:16.879Z,90.30
2018-07-08T21:30:19.588Z,90.20
2018-07-08T21:35:22.324Z,89.50
2018-07-08T21:40:25.013Z,89.10
2018-07-08T21:45:27.724Z,89.10
2018-07-08T21:50:30.437Z,88.60
2018-07-08T21:55:33.227Z,86.90
2018-07-08T22:00:41.879Z,87.20
2018-07-08T22:05:44.550Z,86.90
2018-07-08T22:10:47.174Z,88.20
2018-07-08T22:15:49.799Z,89.00
2018-07-08T22:20:52.484Z,88.00
2018-07-08T22:25:55.188Z,87.20
2018-07-08T22:30:57.864Z,88.80
2018-07-08T22:36:00.487Z,88.40
2018-07-08T22:41:03.155Z,86.10
2018-07-08T22:46:05.857Z,85.00
2018-07-08T22:51:08.534Z,86.20
2018-07-08T22:56:11.179Z,84.60
2018-07-08T23:01:25.380Z,85.50
2018-07-08T23:06:28.046Z,87.50
2018-07-08T23:11:30.664Z,86.80
2018-07-08T23:16:33.327Z,85.50
2018-07-08T23:21:36.121Z,86.30
2018-07-08T23:26:39.463Z,85.20
2018-07-08T23:31:42.209Z,84.90
2018-07-08T23:36:44.960Z,86.70
2018-07-08T23:41:47.664Z,87.20
2018-07-08T23:46:50.275Z,88.60
2018-07-08T23:51:53.221Z,89.70
2018-07-08T23:56:55.875Z,90.10
